sensor_id;sensor_type;location;lat;lon;timestamp;P1;durP1;ratioP1;P2;durP2;ratioP2
24739;SDS011;45234;48.148;17.128;2023-09-30T00:02:01;27.70;;;20.35;;
24739;SDS011;45234;48.148;17.128;2023-09-30T00:04:32;26.67;;;19.00;;
24739;SDS011;45234;48.148;17.128;2023-09-30T00:06:59;27.40;;;21.63;;
24739;SDS011;45234;48.148;17.128;2023-09-30T00:09:26;28.95;;;20.98;;
24739;SDS011;45234;48.148;17.128;2023-09-30T00:11:53;32.58;;;22.92;;
24739;SDS011;45234;48.148;17.128;2023-09-30T00:14:21;32.83;;;24.42;;
24739;SDS011;45234;48.148;17.128;2023-09-30T00:16:48;31.23;;;22.05;;
24739;SDS011;45234;48.148;17.128;2023-09-30T00:19:19;29.10;;;21.23;;
24739;SDS011;45234;48.148;17.128;2023-09-30T00:21:48;25.83;;;21.17;;
24739;SDS011;45234;48.148;17.128;2023-09-30T00:24:18;32.38;;;22.15;;
24739;SDS011;45234;48.148;17.128;2023-09-30T00:26:46;33.28;;;21.92;;
24739;SDS011;45234;48.148;17.128;2023-09-30T00:29:13;31.58;;;23.38;;
24739;SDS011;45234;48.148;17.128;2023-09-30T00:31:40;32.95;;;21.38;;
24739;SDS011;45234;48.148;17.128;2023-09-30T00:34:09;32.13;;;23.55;;
24739;SDS011;45234;48.148;17.128;2023-09-30T00:36:37;29.52;;;22.30;;
24739;SDS011;45234;48.148;17.128;2023-09-30T00:39:04;30.42;;;23.25;;
24739;SDS011;45234;48.148;17.128;2023-09-30T00:41:34;30.45;;;22.35;;
24739;SDS011;45234;48.148;17.128;2023-09-30T00:44:05;30.98;;;21.80;;
24739;SDS011;45234;48.148;17.128;2023-09-30T00:46:35;28.95;;;21.02;;
24739;SDS011;45234;48.148;17.128;2023-09-30T00:49:04;30.05;;;22.08;;
24739;SDS011;45234;48.148;17.128;2023-09-30T00:51:32;34.03;;;21.83;;
24739;SDS011;45234;48.148;17.128;2023-09-30T00:53:59;29.13;;;21.60;;
24739;SDS011;45234;48.148;17.128;2023-09-30T00:56:27;28.77;;;20.92;;
24739;SDS011;45234;48.148;17.128;2023-09-30T00:58:56;28.40;;;20.70;;
24739;SDS011;45234;48.148;17.128;2023-09-30T01:01:24;29.08;;;20.38;;
24739;SDS011;45234;48.148;17.128;2023-09-30T01:03:51;26.33;;;21.23;;
24739;SDS011;45234;48.148;17.128;2023-09-30T01:06:18;26.38;;;19.65;;
24739;SDS011;45234;48.148;17.128;2023-09-30T01:08:46;20.05;;;16.73;;
24739;SDS011;45234;48.148;17.128;2023-09-30T01:11:13;25.92;;;18.73;;
24739;SDS011;45234;48.148;17.128;2023-09-30T01:13:42;24.20;;;19.08;;
24739;SDS011;45234;48.148;17.128;2023-09-30T01:16:11;24.90;;;19.33;;
24739;SDS011;45234;48.148;17.128;2023-09-30T01:18:39;26.00;;;20.17;;
24739;SDS011;45234;48.148;17.128;2023-09-30T01:21:10;28.50;;;19.45;;
24739;SDS011;45234;48.148;17.128;2023-09-30T01:23:40;26.15;;;18.88;;
24739;SDS011;45234;48.148;17.128;2023-09-30T01:26:08;28.30;;;19.25;;
24739;SDS011;45234;48.148;17.128;2023-09-30T01:28:38;24.92;;;18.98;;
24739;SDS011;45234;48.148;17.128;2023-09-30T01:31:06;25.33;;;18.42;;
24739;SDS011;45234;48.148;17.128;2023-09-30T01:33:33;28.38;;;18.00;;
24739;SDS011;45234;48.148;17.128;2023-09-30T01:36:03;25.13;;;17.90;;
24739;SDS011;45234;48.148;17.128;2023-09-30T01:38:30;27.40;;;18.73;;
24739;SDS011;45234;48.148;17.128;2023-09-30T01:40:59;28.60;;;18.83;;
24739;SDS011;45234;48.148;17.128;2023-09-30T01:43:26;23.90;;;17.70;;
24739;SDS011;45234;48.148;17.128;2023-09-30T01:45:54;24.33;;;19.00;;
24739;SDS011;45234;48.148;17.128;2023-09-30T01:48:21;24.70;;;19.08;;
24739;SDS011;45234;48.148;17.128;2023-09-30T01:50:48;29.08;;;18.92;;
24739;SDS011;45234;48.148;17.128;2023-09-30T01:53:15;24.35;;;18.85;;
24739;SDS011;45234;48.148;17.128;2023-09-30T01:55:42;23.92;;;18.48;;
24739;SDS011;45234;48.148;17.128;2023-09-30T01:58:10;23.10;;;17.50;;
24739;SDS011;45234;48.148;17.128;2023-09-30T02:00:38;24.15;;;18.35;;
24739;SDS011;45234;48.148;17.128;2023-09-30T02:03:05;22.85;;;18.13;;
24739;SDS011;45234;48.148;17.128;2023-09-30T02:05:33;24.70;;;18.17;;
24739;SDS011;45234;48.148;17.128;2023-09-30T02:08:05;26.48;;;18.15;;
24739;SDS011;45234;48.148;17.128;2023-09-30T02:10:32;27.35;;;18.20;;
24739;SDS011;45234;48.148;17.128;2023-09-30T02:13:00;22.52;;;17.98;;
24739;SDS011;45234;48.148;17.128;2023-09-30T02:15:33;24.65;;;18.27;;
24739;SDS011;45234;48.148;17.128;2023-09-30T02:18:00;26.95;;;18.33;;
24739;SDS011;45234;48.148;17.128;2023-09-30T02:20:30;25.95;;;18.58;;
24739;SDS011;45234;48.148;17.128;2023-09-30T02:22:57;27.10;;;18.50;;
24739;SDS011;45234;48.148;17.128;2023-09-30T02:25:25;28.38;;;18.67;;
24739;SDS011;45234;48.148;17.128;2023-09-30T02:27:53;25.83;;;18.33;;
24739;SDS011;45234;48.148;17.128;2023-09-30T02:30:20;30.90;;;20.55;;
24739;SDS011;45234;48.148;17.128;2023-09-30T02:32:48;24.70;;;19.30;;
24739;SDS011;45234;48.148;17.128;2023-09-30T02:35:15;25.33;;;18.73;;
24739;SDS011;45234;48.148;17.128;2023-09-30T02:37:42;25.15;;;18.52;;
24739;SDS011;45234;48.148;17.128;2023-09-30T02:40:09;28.50;;;19.10;;
24739;SDS011;45234;48.148;17.128;2023-09-30T02:42:37;23.08;;;19.05;;
24739;SDS011;45234;48.148;17.128;2023-09-30T02:45:05;24.90;;;19.38;;
24739;SDS011;45234;48.148;17.128;2023-09-30T02:47:37;28.05;;;21.17;;
24739;SDS011;45234;48.148;17.128;2023-09-30T02:50:05;24.63;;;19.92;;
24739;SDS011;45234;48.148;17.128;2023-09-30T02:52:37;35.60;;;23.25;;
24739;SDS011;45234;48.148;17.128;2023-09-30T02:55:11;32.40;;;24.85;;
24739;SDS011;45234;48.148;17.128;2023-09-30T02:57:38;32.22;;;26.05;;
24739;SDS011;45234;48.148;17.128;2023-09-30T03:00:06;36.60;;;28.50;;
24739;SDS011;45234;48.148;17.128;2023-09-30T03:03:01;37.63;;;29.67;;
24739;SDS011;45234;48.148;17.128;2023-09-30T03:05:30;38.55;;;30.13;;
24739;SDS011;45234;48.148;17.128;2023-09-30T03:08:00;35.63;;;27.23;;
24739;SDS011;45234;48.148;17.128;2023-09-30T03:10:27;36.60;;;28.63;;
24739;SDS011;45234;48.148;17.128;2023-09-30T03:12:58;32.83;;;26.05;;
24739;SDS011;45234;48.148;17.128;2023-09-30T03:15:29;34.53;;;28.10;;
24739;SDS011;45234;48.148;17.128;2023-09-30T03:17:57;34.38;;;27.13;;
24739;SDS011;45234;48.148;17.128;2023-09-30T03:20:26;33.60;;;26.95;;
24739;SDS011;45234;48.148;17.128;2023-09-30T03:22:54;33.63;;;27.58;;
24739;SDS011;45234;48.148;17.128;2023-09-30T03:25:22;34.17;;;26.40;;
24739;SDS011;45234;48.148;17.128;2023-09-30T03:27:49;31.67;;;26.02;;
24739;SDS011;45234;48.148;17.128;2023-09-30T03:30:17;30.73;;;25.35;;
24739;SDS011;45234;48.148;17.128;2023-09-30T03:32:46;33.53;;;25.25;;
24739;SDS011;45234;48.148;17.128;2023-09-30T03:35:13;31.00;;;25.25;;
24739;SDS011;45234;48.148;17.128;2023-09-30T03:37:45;29.38;;;23.55;;
24739;SDS011;45234;48.148;17.128;2023-09-30T03:40:14;31.98;;;26.77;;
24739;SDS011;45234;48.148;17.128;2023-09-30T03:42:46;32.70;;;26.38;;
24739;SDS011;45234;48.148;17.128;2023-09-30T03:45:16;32.15;;;25.10;;
24739;SDS011;45234;48.148;17.128;2023-09-30T03:47:46;30.27;;;25.38;;
24739;SDS011;45234;48.148;17.128;2023-09-30T03:50:15;30.00;;;22.42;;
24739;SDS011;45234;48.148;17.128;2023-09-30T03:52:43;23.98;;;18.75;;
24739;SDS011;45234;48.148;17.128;2023-09-30T03:55:13;25.85;;;20.08;;
24739;SDS011;45234;48.148;17.128;2023-09-30T03:57:48;25.95;;;19.88;;
24739;SDS011;45234;48.148;17.128;2023-09-30T04:00:17;26.10;;;21.10;;
24739;SDS011;45234;48.148;17.128;2023-09-30T04:02:50;28.40;;;19.30;;
24739;SDS011;45234;48.148;17.128;2023-09-30T04:05:24;21.92;;;17.52;;
24739;SDS011;45234;48.148;17.128;2023-09-30T04:07:55;22.85;;;19.35;;
24739;SDS011;45234;48.148;17.128;2023-09-30T04:10:22;24.58;;;18.40;;
24739;SDS011;45234;48.148;17.128;2023-09-30T04:12:49;23.63;;;18.52;;
24739;SDS011;45234;48.148;17.128;2023-09-30T04:15:18;24.40;;;17.10;;
24739;SDS011;45234;48.148;17.128;2023-09-30T04:17:45;24.65;;;17.85;;
24739;SDS011;45234;48.148;17.128;2023-09-30T04:20:13;23.17;;;17.92;;
24739;SDS011;45234;48.148;17.128;2023-09-30T04:22:46;21.83;;;18.15;;
24739;SDS011;45234;48.148;17.128;2023-09-30T04:25:16;24.05;;;18.15;;
24739;SDS011;45234;48.148;17.128;2023-09-30T04:27:44;26.13;;;19.38;;
24739;SDS011;45234;48.148;17.128;2023-09-30T04:30:18;25.92;;;19.75;;
24739;SDS011;45234;48.148;17.128;2023-09-30T04:32:48;28.80;;;20.58;;
24739;SDS011;45234;48.148;17.128;2023-09-30T04:35:15;30.52;;;24.15;;
24739;SDS011;45234;48.148;17.128;2023-09-30T04:37:43;29.83;;;23.13;;
24739;SDS011;45234;48.148;17.128;2023-09-30T04:40:10;28.55;;;23.23;;
24739;SDS011;45234;48.148;17.128;2023-09-30T04:42:44;35.50;;;23.73;;
24739;SDS011;45234;48.148;17.128;2023-09-30T04:45:14;30.63;;;23.15;;
24739;SDS011;45234;48.148;17.128;2023-09-30T04:47:46;28.08;;;22.63;;
24739;SDS011;45234;48.148;17.128;2023-09-30T04:50:16;31.70;;;22.67;;
24739;SDS011;45234;48.148;17.128;2023-09-30T04:52:49;29.67;;;22.70;;
24739;SDS011;45234;48.148;17.128;2023-09-30T04:55:17;29.60;;;22.70;;
24739;SDS011;45234;48.148;17.128;2023-09-30T04:57:45;26.00;;;19.65;;
24739;SDS011;45234;48.148;17.128;2023-09-30T05:00:14;21.80;;;15.70;;
24739;SDS011;45234;48.148;17.128;2023-09-30T05:02:51;19.88;;;14.57;;
24739;SDS011;45234;48.148;17.128;2023-09-30T05:05:20;22.00;;;14.07;;
24739;SDS011;45234;48.148;17.128;2023-09-30T05:07:47;20.73;;;14.98;;
24739;SDS011;45234;48.148;17.128;2023-09-30T05:10:14;20.85;;;15.50;;
24739;SDS011;45234;48.148;17.128;2023-09-30T05:12:44;22.58;;;15.45;;
24739;SDS011;45234;48.148;17.128;2023-09-30T05:15:14;21.50;;;16.63;;
24739;SDS011;45234;48.148;17.128;2023-09-30T05:17:47;20.20;;;15.00;;
24739;SDS011;45234;48.148;17.128;2023-09-30T05:20:16;19.70;;;15.27;;
24739;SDS011;45234;48.148;17.128;2023-09-30T05:22:44;17.80;;;14.90;;
24739;SDS011;45234;48.148;17.128;2023-09-30T05:25:13;16.33;;;13.48;;
24739;SDS011;45234;48.148;17.128;2023-09-30T05:27:45;18.35;;;13.30;;
24739;SDS011;45234;48.148;17.128;2023-09-30T05:30:16;17.38;;;12.68;;
24739;SDS011;45234;48.148;17.128;2023-09-30T05:32:45;17.13;;;12.85;;
24739;SDS011;45234;48.148;17.128;2023-09-30T05:35:13;13.43;;;11.18;;
24739;SDS011;45234;48.148;17.128;2023-09-30T05:37:46;11.00;;;9.07;;
24739;SDS011;45234;48.148;17.128;2023-09-30T05:40:13;12.13;;;8.70;;
24739;SDS011;45234;48.148;17.128;2023-09-30T05:42:54;11.55;;;8.15;;
24739;SDS011;45234;48.148;17.128;2023-09-30T05:45:32;11.77;;;8.40;;
24739;SDS011;45234;48.148;17.128;2023-09-30T05:48:02;13.25;;;7.80;;
24739;SDS011;45234;48.148;17.128;2023-09-30T05:50:34;13.85;;;8.95;;
24739;SDS011;45234;48.148;17.128;2023-09-30T05:53:03;12.32;;;8.90;;
24739;SDS011;45234;48.148;17.128;2023-09-30T05:55:40;10.55;;;8.63;;
24739;SDS011;45234;48.148;17.128;2023-09-30T05:58:09;11.13;;;8.75;;
24739;SDS011;45234;48.148;17.128;2023-09-30T06:00:41;13.55;;;9.25;;
24739;SDS011;45234;48.148;17.128;2023-09-30T06:03:09;17.02;;;10.43;;
24739;SDS011;45234;48.148;17.128;2023-09-30T06:05:39;13.98;;;9.38;;
24739;SDS011;45234;48.148;17.128;2023-09-30T06:08:08;11.65;;;9.90;;
24739;SDS011;45234;48.148;17.128;2023-09-30T06:10:42;12.77;;;10.13;;
24739;SDS011;45234;48.148;17.128;2023-09-30T06:13:11;14.50;;;9.73;;
24739;SDS011;45234;48.148;17.128;2023-09-30T06:15:39;14.60;;;9.77;;
24739;SDS011;45234;48.148;17.128;2023-09-30T06:18:07;13.07;;;10.02;;
24739;SDS011;45234;48.148;17.128;2023-09-30T06:20:40;15.27;;;10.25;;
24739;SDS011;45234;48.148;17.128;2023-09-30T06:23:08;11.57;;;9.98;;
24739;SDS011;45234;48.148;17.128;2023-09-30T06:25:36;11.63;;;10.07;;
24739;SDS011;45234;48.148;17.128;2023-09-30T06:28:03;16.33;;;10.60;;
24739;SDS011;45234;48.148;17.128;2023-09-30T06:30:30;15.45;;;10.55;;
24739;SDS011;45234;48.148;17.128;2023-09-30T06:33:00;15.07;;;10.52;;
24739;SDS011;45234;48.148;17.128;2023-09-30T06:35:31;13.35;;;10.10;;
24739;SDS011;45234;48.148;17.128;2023-09-30T06:38:16;17.02;;;10.52;;
24739;SDS011;45234;48.148;17.128;2023-09-30T06:40:53;12.55;;;9.63;;
24739;SDS011;45234;48.148;17.128;2023-09-30T06:43:20;14.90;;;10.32;;
24739;SDS011;45234;48.148;17.128;2023-09-30T06:45:48;13.43;;;9.32;;
24739;SDS011;45234;48.148;17.128;2023-09-30T06:48:15;12.52;;;10.38;;
24739;SDS011;45234;48.148;17.128;2023-09-30T06:50:46;13.48;;;9.75;;
24739;SDS011;45234;48.148;17.128;2023-09-30T06:53:17;14.73;;;9.95;;
24739;SDS011;45234;48.148;17.128;2023-09-30T06:55:45;16.70;;;10.25;;
24739;SDS011;45234;48.148;17.128;2023-09-30T06:58:13;15.13;;;10.18;;
24739;SDS011;45234;48.148;17.128;2023-09-30T07:00:50;14.45;;;10.60;;
24739;SDS011;45234;48.148;17.128;2023-09-30T07:03:23;13.77;;;10.60;;
24739;SDS011;45234;48.148;17.128;2023-09-30T07:05:53;15.93;;;10.27;;
24739;SDS011;45234;48.148;17.128;2023-09-30T07:08:22;13.50;;;9.98;;
24739;SDS011;45234;48.148;17.128;2023-09-30T07:10:50;13.73;;;10.00;;
24739;SDS011;45234;48.148;17.128;2023-09-30T07:13:19;17.98;;;10.27;;
24739;SDS011;45234;48.148;17.128;2023-09-30T07:15:46;14.73;;;9.80;;
24739;SDS011;45234;48.148;17.128;2023-09-30T07:18:14;14.75;;;9.95;;
24739;SDS011;45234;48.148;17.128;2023-09-30T07:20:46;17.67;;;10.85;;
24739;SDS011;45234;48.148;17.128;2023-09-30T07:23:13;16.73;;;10.77;;
24739;SDS011;45234;48.148;17.128;2023-09-30T07:25:46;13.18;;;9.23;;
24739;SDS011;45234;48.148;17.128;2023-09-30T07:28:14;16.30;;;10.95;;
24739;SDS011;45234;48.148;17.128;2023-09-30T07:30:41;14.30;;;10.00;;
24739;SDS011;45234;48.148;17.128;2023-09-30T07:33:10;12.13;;;9.65;;
24739;SDS011;45234;48.148;17.128;2023-09-30T07:35:37;15.05;;;10.57;;
24739;SDS011;45234;48.148;17.128;2023-09-30T07:38:05;15.23;;;9.18;;
24739;SDS011;45234;48.148;17.128;2023-09-30T07:40:34;13.32;;;9.35;;
24739;SDS011;45234;48.148;17.128;2023-09-30T07:43:01;16.60;;;9.85;;
24739;SDS011;45234;48.148;17.128;2023-09-30T07:45:28;16.58;;;10.50;;
24739;SDS011;45234;48.148;17.128;2023-09-30T07:47:55;15.38;;;10.07;;
24739;SDS011;45234;48.148;17.128;2023-09-30T07:50:24;15.52;;;10.73;;
24739;SDS011;45234;48.148;17.128;2023-09-30T07:52:51;17.42;;;10.63;;
24739;SDS011;45234;48.148;17.128;2023-09-30T07:55:18;13.43;;;9.52;;
24739;SDS011;45234;48.148;17.128;2023-09-30T07:57:46;15.98;;;10.88;;
24739;SDS011;45234;48.148;17.128;2023-09-30T08:00:13;15.32;;;9.13;;
24739;SDS011;45234;48.148;17.128;2023-09-30T08:02:42;17.13;;;9.88;;
24739;SDS011;45234;48.148;17.128;2023-09-30T08:05:10;14.63;;;10.15;;
24739;SDS011;45234;48.148;17.128;2023-09-30T08:07:38;15.25;;;9.57;;
24739;SDS011;45234;48.148;17.128;2023-09-30T08:10:06;14.65;;;9.30;;
24739;SDS011;45234;48.148;17.128;2023-09-30T08:12:43;13.85;;;8.98;;
24739;SDS011;45234;48.148;17.128;2023-09-30T08:15:17;14.50;;;9.25;;
24739;SDS011;45234;48.148;17.128;2023-09-30T08:18:05;17.58;;;8.93;;
24739;SDS011;45234;48.148;17.128;2023-09-30T08:20:38;15.95;;;10.05;;
24739;SDS011;45234;48.148;17.128;2023-09-30T08:23:05;16.02;;;9.73;;
24739;SDS011;45234;48.148;17.128;2023-09-30T08:25:47;15.80;;;10.07;;
24739;SDS011;45234;48.148;17.128;2023-09-30T08:28:21;16.70;;;10.13;;
24739;SDS011;45234;48.148;17.128;2023-09-30T08:30:52;20.13;;;11.00;;
24739;SDS011;45234;48.148;17.128;2023-09-30T08:33:33;16.98;;;9.43;;
24739;SDS011;45234;48.148;17.128;2023-09-30T08:36:15;18.08;;;9.93;;
24739;SDS011;45234;48.148;17.128;2023-09-30T08:38:42;18.80;;;10.38;;
24739;SDS011;45234;48.148;17.128;2023-09-30T08:41:10;14.90;;;8.90;;
24739;SDS011;45234;48.148;17.128;2023-09-30T08:43:41;15.23;;;9.23;;
24739;SDS011;45234;48.148;17.128;2023-09-30T08:46:09;15.15;;;10.13;;
24739;SDS011;45234;48.148;17.128;2023-09-30T08:48:38;15.13;;;9.50;;
24739;SDS011;45234;48.148;17.128;2023-09-30T08:51:06;19.58;;;9.30;;
24739;SDS011;45234;48.148;17.128;2023-09-30T08:53:34;13.57;;;8.95;;
24739;SDS011;45234;48.148;17.128;2023-09-30T08:56:04;16.60;;;9.88;;
24739;SDS011;45234;48.148;17.128;2023-09-30T08:58:36;18.60;;;10.27;;
24739;SDS011;45234;48.148;17.128;2023-09-30T09:01:04;17.20;;;10.52;;
24739;SDS011;45234;48.148;17.128;2023-09-30T09:03:36;21.65;;;10.18;;
24739;SDS011;45234;48.148;17.128;2023-09-30T09:06:05;15.95;;;9.75;;
24739;SDS011;45234;48.148;17.128;2023-09-30T09:08:32;17.90;;;10.57;;
24739;SDS011;45234;48.148;17.128;2023-09-30T09:11:00;18.65;;;10.15;;
24739;SDS011;45234;48.148;17.128;2023-09-30T09:13:29;17.10;;;10.10;;
24739;SDS011;45234;48.148;17.128;2023-09-30T09:16:22;20.13;;;10.43;;
24739;SDS011;45234;48.148;17.128;2023-09-30T09:18:52;20.80;;;10.35;;
24739;SDS011;45234;48.148;17.128;2023-09-30T09:21:21;21.83;;;11.40;;
24739;SDS011;45234;48.148;17.128;2023-09-30T09:23:50;21.70;;;10.73;;
24739;SDS011;45234;48.148;17.128;2023-09-30T09:28:56;19.50;;;11.02;;
24739;SDS011;45234;48.148;17.128;2023-09-30T09:31:26;17.63;;;10.10;;
24739;SDS011;45234;48.148;17.128;2023-09-30T09:33:55;20.95;;;11.38;;
24739;SDS011;45234;48.148;17.128;2023-09-30T09:36:41;20.10;;;11.13;;
24739;SDS011;45234;48.148;17.128;2023-09-30T09:39:10;21.25;;;11.30;;
24739;SDS011;45234;48.148;17.128;2023-09-30T09:41:52;22.15;;;11.55;;
24739;SDS011;45234;48.148;17.128;2023-09-30T09:44:20;23.25;;;11.95;;
24739;SDS011;45234;48.148;17.128;2023-09-30T09:46:49;22.35;;;12.52;;
24739;SDS011;45234;48.148;17.128;2023-09-30T09:49:16;23.02;;;12.23;;
24739;SDS011;45234;48.148;17.128;2023-09-30T09:51:48;24.90;;;13.45;;
24739;SDS011;45234;48.148;17.128;2023-09-30T09:54:17;24.58;;;12.68;;
24739;SDS011;45234;48.148;17.128;2023-09-30T09:56:45;25.23;;;12.82;;
24739;SDS011;45234;48.148;17.128;2023-09-30T09:59:12;21.83;;;12.25;;
24739;SDS011;45234;48.148;17.128;2023-09-30T10:01:40;22.85;;;13.45;;
24739;SDS011;45234;48.148;17.128;2023-09-30T10:04:10;24.55;;;13.68;;
24739;SDS011;45234;48.148;17.128;2023-09-30T10:06:44;28.33;;;13.30;;
24739;SDS011;45234;48.148;17.128;2023-09-30T10:09:14;28.55;;;13.95;;
24739;SDS011;45234;48.148;17.128;2023-09-30T10:11:43;23.27;;;12.77;;
24739;SDS011;45234;48.148;17.128;2023-09-30T10:14:29;24.73;;;13.02;;
24739;SDS011;45234;48.148;17.128;2023-09-30T10:16:58;23.13;;;13.02;;
24739;SDS011;45234;48.148;17.128;2023-09-30T10:19:27;24.45;;;13.52;;
24739;SDS011;45234;48.148;17.128;2023-09-30T10:22:19;24.63;;;13.98;;
24739;SDS011;45234;48.148;17.128;2023-09-30T10:24:53;22.15;;;13.38;;
24739;SDS011;45234;48.148;17.128;2023-09-30T10:40:45;23.13;;;13.50;;
24739;SDS011;45234;48.148;17.128;2023-09-30T10:43:30;27.80;;;14.05;;
24739;SDS011;45234;48.148;17.128;2023-09-30T10:45:59;25.15;;;12.57;;
24739;SDS011;45234;48.148;17.128;2023-09-30T10:48:49;23.42;;;13.43;;
24739;SDS011;45234;48.148;17.128;2023-09-30T10:51:18;21.25;;;12.38;;
24739;SDS011;45234;48.148;17.128;2023-09-30T10:53:48;23.58;;;13.48;;
24739;SDS011;45234;48.148;17.128;2023-09-30T10:56:23;28.33;;;13.55;;
24739;SDS011;45234;48.148;17.128;2023-09-30T10:58:58;24.38;;;13.85;;
24739;SDS011;45234;48.148;17.128;2023-09-30T11:01:31;25.63;;;13.93;;
24739;SDS011;45234;48.148;17.128;2023-09-30T11:04:04;21.42;;;12.88;;
24739;SDS011;45234;48.148;17.128;2023-09-30T11:06:35;22.95;;;12.75;;
24739;SDS011;45234;48.148;17.128;2023-09-30T11:09:08;23.42;;;12.50;;
24739;SDS011;45234;48.148;17.128;2023-09-30T11:16:57;25.45;;;13.27;;
24739;SDS011;45234;48.148;17.128;2023-09-30T11:19:26;23.80;;;12.30;;
24739;SDS011;45234;48.148;17.128;2023-09-30T11:21:59;22.73;;;12.77;;
24739;SDS011;45234;48.148;17.128;2023-09-30T11:24:26;21.67;;;11.98;;
24739;SDS011;45234;48.148;17.128;2023-09-30T11:26:56;27.83;;;13.05;;
24739;SDS011;45234;48.148;17.128;2023-09-30T11:29:23;22.70;;;12.65;;
24739;SDS011;45234;48.148;17.128;2023-09-30T11:31:52;25.65;;;13.32;;
24739;SDS011;45234;48.148;17.128;2023-09-30T11:34:19;23.55;;;13.82;;
24739;SDS011;45234;48.148;17.128;2023-09-30T11:36:58;25.10;;;12.65;;
24739;SDS011;45234;48.148;17.128;2023-09-30T11:39:29;24.77;;;12.52;;
24739;SDS011;45234;48.148;17.128;2023-09-30T11:41:57;25.35;;;13.77;;
24739;SDS011;45234;48.148;17.128;2023-09-30T11:44:24;28.15;;;14.20;;
24739;SDS011;45234;48.148;17.128;2023-09-30T11:46:58;23.65;;;12.73;;
24739;SDS011;45234;48.148;17.128;2023-09-30T11:49:39;26.88;;;13.98;;
24739;SDS011;45234;48.148;17.128;2023-09-30T11:52:08;25.08;;;13.05;;
24739;SDS011;45234;48.148;17.128;2023-09-30T11:54:39;27.58;;;13.50;;
24739;SDS011;45234;48.148;17.128;2023-09-30T11:57:10;28.05;;;14.60;;
24739;SDS011;45234;48.148;17.128;2023-09-30T11:59:45;30.02;;;16.38;;
24739;SDS011;45234;48.148;17.128;2023-09-30T12:02:17;27.40;;;14.63;;
24739;SDS011;45234;48.148;17.128;2023-09-30T12:04:44;26.98;;;14.98;;
24739;SDS011;45234;48.148;17.128;2023-09-30T12:07:17;27.48;;;15.32;;
24739;SDS011;45234;48.148;17.128;2023-09-30T12:09:45;26.10;;;14.40;;
24739;SDS011;45234;48.148;17.128;2023-09-30T12:12:12;26.58;;;15.23;;
24739;SDS011;45234;48.148;17.128;2023-09-30T12:14:41;27.67;;;14.57;;
24739;SDS011;45234;48.148;17.128;2023-09-30T12:17:09;26.05;;;14.70;;
24739;SDS011;45234;48.148;17.128;2023-09-30T12:19:40;32.38;;;15.75;;
24739;SDS011;45234;48.148;17.128;2023-09-30T12:22:09;31.90;;;15.13;;
24739;SDS011;45234;48.148;17.128;2023-09-30T12:24:39;28.17;;;14.85;;
24739;SDS011;45234;48.148;17.128;2023-09-30T12:27:07;31.25;;;16.10;;
24739;SDS011;45234;48.148;17.128;2023-09-30T12:29:34;28.48;;;16.15;;
24739;SDS011;45234;48.148;17.128;2023-09-30T12:32:05;27.38;;;15.50;;
24739;SDS011;45234;48.148;17.128;2023-09-30T12:34:32;26.98;;;15.30;;
24739;SDS011;45234;48.148;17.128;2023-09-30T12:36:59;29.33;;;16.73;;
24739;SDS011;45234;48.148;17.128;2023-09-30T12:39:28;41.88;;;16.38;;
24739;SDS011;45234;48.148;17.128;2023-09-30T12:41:59;33.83;;;15.60;;
24739;SDS011;45234;48.148;17.128;2023-09-30T12:44:26;35.00;;;16.88;;
24739;SDS011;45234;48.148;17.128;2023-09-30T12:46:53;30.83;;;15.85;;
24739;SDS011;45234;48.148;17.128;2023-09-30T12:49:20;29.65;;;16.05;;
24739;SDS011;45234;48.148;17.128;2023-09-30T12:51:49;27.60;;;14.40;;
24739;SDS011;45234;48.148;17.128;2023-09-30T12:54:16;28.85;;;15.77;;
24739;SDS011;45234;48.148;17.128;2023-09-30T12:56:45;30.98;;;18.33;;
24739;SDS011;45234;48.148;17.128;2023-09-30T12:59:14;28.05;;;15.32;;
24739;SDS011;45234;48.148;17.128;2023-09-30T13:01:43;30.15;;;15.35;;
24739;SDS011;45234;48.148;17.128;2023-09-30T13:04:11;28.25;;;15.25;;
24739;SDS011;45234;48.148;17.128;2023-09-30T13:06:39;32.08;;;16.05;;
24739;SDS011;45234;48.148;17.128;2023-09-30T13:09:08;36.97;;;17.10;;
24739;SDS011;45234;48.148;17.128;2023-09-30T13:11:35;29.40;;;16.35;;
24739;SDS011;45234;48.148;17.128;2023-09-30T13:14:03;32.45;;;16.45;;
24739;SDS011;45234;48.148;17.128;2023-09-30T13:16:31;29.20;;;15.55;;
24739;SDS011;45234;48.148;17.128;2023-09-30T13:18:58;29.77;;;16.10;;
24739;SDS011;45234;48.148;17.128;2023-09-30T13:21:26;32.45;;;17.65;;
24739;SDS011;45234;48.148;17.128;2023-09-30T13:23:53;30.75;;;16.67;;
24739;SDS011;45234;48.148;17.128;2023-09-30T13:26:21;30.38;;;16.70;;
24739;SDS011;45234;48.148;17.128;2023-09-30T13:28:48;29.42;;;16.45;;
24739;SDS011;45234;48.148;17.128;2023-09-30T13:31:15;34.10;;;16.98;;
24739;SDS011;45234;48.148;17.128;2023-09-30T13:33:42;31.67;;;16.27;;
24739;SDS011;45234;48.148;17.128;2023-09-30T13:36:10;28.00;;;15.02;;
24739;SDS011;45234;48.148;17.128;2023-09-30T13:38:37;30.55;;;16.75;;
24739;SDS011;45234;48.148;17.128;2023-09-30T13:41:06;27.90;;;14.73;;
24739;SDS011;45234;48.148;17.128;2023-09-30T13:43:33;29.45;;;15.13;;
24739;SDS011;45234;48.148;17.128;2023-09-30T13:46:04;24.17;;;14.73;;
24739;SDS011;45234;48.148;17.128;2023-09-30T13:48:34;28.63;;;14.20;;
24739;SDS011;45234;48.148;17.128;2023-09-30T13:51:08;28.55;;;15.73;;
24739;SDS011;45234;48.148;17.128;2023-09-30T13:53:37;25.67;;;14.15;;
24739;SDS011;45234;48.148;17.128;2023-09-30T13:56:04;29.40;;;14.35;;
24739;SDS011;45234;48.148;17.128;2023-09-30T13:58:32;26.20;;;13.30;;
24739;SDS011;45234;48.148;17.128;2023-09-30T14:00:59;25.92;;;13.52;;
24739;SDS011;45234;48.148;17.128;2023-09-30T14:03:26;28.52;;;17.20;;
24739;SDS011;45234;48.148;17.128;2023-09-30T14:05:54;29.90;;;13.75;;
24739;SDS011;45234;48.148;17.128;2023-09-30T14:08:27;24.75;;;12.75;;
24739;SDS011;45234;48.148;17.128;2023-09-30T14:10:55;21.45;;;12.38;;
24739;SDS011;45234;48.148;17.128;2023-09-30T14:13:26;25.23;;;13.00;;
24739;SDS011;45234;48.148;17.128;2023-09-30T14:15:54;21.42;;;12.95;;
24739;SDS011;45234;48.148;17.128;2023-09-30T14:18:21;24.08;;;12.05;;
24739;SDS011;45234;48.148;17.128;2023-09-30T14:20:48;24.45;;;13.80;;
24739;SDS011;45234;48.148;17.128;2023-09-30T14:23:17;21.98;;;12.27;;
24739;SDS011;45234;48.148;17.128;2023-09-30T14:25:44;27.08;;;12.70;;
24739;SDS011;45234;48.148;17.128;2023-09-30T14:28:11;21.08;;;12.38;;
24739;SDS011;45234;48.148;17.128;2023-09-30T14:30:41;20.95;;;11.48;;
24739;SDS011;45234;48.148;17.128;2023-09-30T14:33:18;21.73;;;10.93;;
24739;SDS011;45234;48.148;17.128;2023-09-30T14:35:45;21.73;;;11.60;;
24739;SDS011;45234;48.148;17.128;2023-09-30T14:38:15;21.67;;;11.20;;
24739;SDS011;45234;48.148;17.128;2023-09-30T14:40:42;19.02;;;10.65;;
24739;SDS011;45234;48.148;17.128;2023-09-30T14:43:09;19.35;;;10.43;;
24739;SDS011;45234;48.148;17.128;2023-09-30T14:45:40;19.70;;;10.07;;
24739;SDS011;45234;48.148;17.128;2023-09-30T14:48:08;18.33;;;10.75;;